Ana Sayfa
METAR-TAF:

METAR-TAF

Havaalanları :

Branson, Missouri, Amerika Birleşik Devletleri

Enlem: 36-31-55N, Boylam: 093-12-02W, yükseklik: 397 m

Güncel hava durumu gözlemi

Rapor saat 03:15 UTC de 37 dakika önce yapıldı.
Sakin rüzgar
Sıcaklık 24°C
Nem 78%
Basınç 1015 hPa
Görüş mesafesi: 16.1 km
Açık gökyüzü

METAR: KBBG 240315Z AUTO 00000KT 10SM CLR 24/20 A2997 RMK AO2

Saat: 22:52 (03:52 UTC)

Tahmin

Rapor saat 23:20 UTC de 4 saat ve 32 dakika önce yapıldı.
Ayın 24'si saat 00 UTC'den ayın 24'si saat 24 UTC'ye kadar geçerli Tahmin
Rüzgar değişken yönden 4 kt
Görüş mesafesi: 10 km
Açık gökyüzü
Ayın 24'si saat 1700 UTC'den
Rüzgar güneydan 5 kt
Görüş mesafesi: 10 km
Açık gökyüzü

TAF: KBBG 232320Z 2400/2424 VRB04KT P6SM SKC FM241700 18005KT P6SM SKC

4.000'den fazla havaalanı için hava durumu gözlemleri ve tahminleri (METAR ve TAF raporları).

Kullanılabilir istasyonlar harita üzerinde sarı ve kırmızı noktalarla gösterilir.

İstasyonun adını görmek için fareyi noktanın üzerinde gezdirin.

Sonrasında hava gözlem ve tahminlerini görmek için tıklayın.

Haritayı değiştirmek için: yaklaştırmak için siyah artı işaretli yeşil düğmeye ve uzaklaştırmak için de eksi işaretli düğmeye hızla tıklayın; bitişik haritalar için yeşil okları kullanın.


METAR-TAF: